createdAt,value
2022-12-11T00:02:26.683Z,-1.42
2022-12-11T00:05:00.465Z,-1.42
2022-12-11T00:07:34.026Z,-1.42
2022-12-11T00:10:10.454Z,-1.40
2022-12-11T00:12:44.089Z,-1.34
2022-12-11T00:15:18.297Z,-1.40
2022-12-11T00:17:51.755Z,-1.46
2022-12-11T00:20:25.537Z,-1.44
2022-12-11T00:22:59.167Z,-1.43
2022-12-11T00:25:34.587Z,-1.48
2022-12-11T00:28:08.038Z,-1.44
2022-12-11T00:30:43.134Z,-1.46
2022-12-11T00:33:17.156Z,-1.45
2022-12-11T00:35:50.848Z,-1.42
2022-12-11T00:38:25.055Z,-1.47
2022-12-11T00:41:00.905Z,-1.46
2022-12-11T00:43:34.404Z,-1.56
2022-12-11T00:46:08.882Z,-1.49
2022-12-11T00:48:42.476Z,-1.44
2022-12-11T00:51:16.397Z,-1.51
2022-12-11T00:53:49.900Z,-1.39
2022-12-11T00:56:25.296Z,-1.35
2022-12-11T00:58:58.837Z,-1.39
2022-12-11T01:01:33.408Z,-1.31
2022-12-11T01:04:07.042Z,-1.36
2022-12-11T01:06:40.950Z,-1.38
2022-12-11T01:09:32.231Z,-1.38
2022-12-11T01:12:07.685Z,-1.37
2022-12-11T01:14:41.088Z,-1.37
2022-12-11T01:17:14.738Z,-1.35
2022-12-11T01:19:48.866Z,-1.44
2022-12-11T01:22:22.845Z,-1.45
2022-12-11T01:24:56.475Z,-1.34
2022-12-11T01:27:31.538Z,-1.37
2022-12-11T01:30:06.048Z,-1.34
2022-12-11T01:32:39.832Z,-1.32
2022-12-11T01:35:14.204Z,-1.25
2022-12-11T01:37:49.614Z,-1.32
2022-12-11T01:40:23.908Z,-1.31
2022-12-11T01:42:59.302Z,-1.35
2022-12-11T01:45:39.916Z,-1.33
2022-12-11T01:48:17.441Z,-1.33
2022-12-11T01:50:53.127Z,-1.34
2022-12-11T01:53:32.025Z,-1.32
2022-12-11T01:56:05.669Z,-1.26
2022-12-11T01:58:45.115Z,-1.30
2022-12-11T02:01:26.650Z,-1.36
2022-12-11T02:04:00.934Z,-1.36
2022-12-11T02:06:37.828Z,-1.40
2022-12-11T02:09:14.001Z,-1.43
2022-12-11T02:11:56.490Z,-1.38
2022-12-11T02:14:39.505Z,-1.40
2022-12-11T02:17:18.216Z,-1.43
2022-12-11T02:20:04.319Z,-1.51
2022-12-11T02:22:55.766Z,-1.54
2022-12-11T02:25:36.767Z,-1.57
2022-12-11T02:28:19.739Z,-1.58
2022-12-11T02:30:58.884Z,-1.55
2022-12-11T02:33:37.331Z,-1.64
2022-12-11T02:36:11.474Z,-1.61
2022-12-11T02:38:50.609Z,-1.69
2022-12-11T02:41:26.368Z,-1.70
2022-12-11T02:44:04.338Z,-1.68
2022-12-11T02:46:38.985Z,-1.65
2022-12-11T02:49:14.847Z,-1.68
2022-12-11T02:51:48.787Z,-1.71
2022-12-11T02:54:27.978Z,-1.69
2022-12-11T02:57:06.722Z,-1.71
2022-12-11T02:59:45.139Z,-1.71
2022-12-11T03:02:19.227Z,-1.71
2022-12-11T03:04:52.980Z,-1.69
2022-12-11T03:07:32.754Z,-1.69
2022-12-11T03:10:08.844Z,-1.68
2022-12-11T03:12:47.031Z,-1.79
2022-12-11T03:15:35.080Z,-1.73
2022-12-11T03:18:16.679Z,-1.81
2022-12-11T03:21:03.165Z,-1.77
2022-12-11T03:23:43.605Z,-1.77
2022-12-11T03:26:19.819Z,-1.85
2022-12-11T03:28:59.610Z,-1.86
2022-12-11T03:31:41.991Z,-1.83
2022-12-11T03:34:20.666Z,-1.82
2022-12-11T03:36:56.938Z,-1.74
2022-12-11T03:39:33.966Z,-1.73
2022-12-11T03:42:11.176Z,-1.74
2022-12-11T03:44:49.237Z,-1.76
2022-12-11T03:47:27.594Z,-1.76
2022-12-11T03:50:04.786Z,-1.80
2022-12-11T03:52:45.581Z,-1.78
2022-12-11T03:55:22.271Z,-1.80
2022-12-11T03:57:55.873Z,-1.80
2022-12-11T04:00:30.218Z,-1.79
2022-12-11T04:03:14.800Z,-1.73
2022-12-11T04:05:50.463Z,-1.75
2022-12-11T04:08:24.517Z,-1.75
2022-12-11T04:11:12.169Z,-1.78
2022-12-11T04:13:45.798Z,-1.79
2022-12-11T04:16:18.701Z,-1.79
2022-12-11T04:19:11.177Z,-1.74
2022-12-11T04:22:02.597Z,-1.78
2022-12-11T04:24:36.094Z,-1.78
2022-12-11T04:27:09.942Z,-1.72
2022-12-11T04:29:43.343Z,-1.76
2022-12-11T04:32:17.097Z,-1.72
2022-12-11T04:34:52.241Z,-1.77
2022-12-11T04:37:25.863Z,-1.80
2022-12-11T04:39:59.326Z,-1.77
2022-12-11T04:42:32.988Z,-1.66
2022-12-11T04:45:08.663Z,-1.72
2022-12-11T04:47:43.476Z,-1.76
2022-12-11T04:50:18.949Z,-1.71
2022-12-11T04:52:56.090Z,-1.74
2022-12-11T04:55:29.590Z,-1.79
2022-12-11T04:58:03.275Z,-1.77
2022-12-11T05:00:36.740Z,-1.80
2022-12-11T05:03:10.781Z,-1.78
2022-12-11T05:05:50.642Z,-1.74
2022-12-11T05:08:24.403Z,-1.75
2022-12-11T05:10:58.530Z,-1.77
2022-12-11T05:13:32.403Z,-1.74
2022-12-11T05:16:06.890Z,-1.67
2022-12-11T05:18:40.837Z,-1.79
2022-12-11T05:21:17.307Z,-1.76
2022-12-11T05:23:51.068Z,-1.81
2022-12-11T05:26:24.521Z,-1.76
2022-12-11T05:28:58.288Z,-1.71
2022-12-11T05:31:31.887Z,-1.65
2022-12-11T05:34:05.655Z,-1.62
2022-12-11T05:36:40.830Z,-1.69
2022-12-11T05:39:14.472Z,-1.71
2022-12-11T05:41:47.952Z,-1.67
2022-12-11T05:44:21.803Z,-1.80
2022-12-11T05:46:55.300Z,-1.78
2022-12-11T05:49:30.996Z,-1.77
2022-12-11T05:52:06.316Z,-1.76
2022-12-11T05:54:40.459Z,-1.76
2022-12-11T05:57:13.964Z,-1.80
2022-12-11T05:59:47.584Z,-1.83
2022-12-11T06:02:21.306Z,-1.89
2022-12-11T06:04:55.057Z,-1.95
2022-12-11T06:07:29.947Z,-2.01
2022-12-11T06:10:03.716Z,-2.07
2022-12-11T06:12:37.928Z,-2.12
2022-12-11T06:15:12.061Z,-2.11
2022-12-11T06:17:46.418Z,-2.11
2022-12-11T06:20:20.197Z,-2.09
2022-12-11T06:22:55.233Z,-2.16
2022-12-11T06:25:29.956Z,-2.18
2022-12-11T06:28:03.427Z,-2.19
2022-12-11T06:30:38.909Z,-2.21
2022-12-11T06:33:13.433Z,-2.25
2022-12-11T06:35:47.110Z,-2.23
2022-12-11T06:38:21.887Z,-2.26
2022-12-11T06:40:57.150Z,-2.26
2022-12-11T06:43:30.712Z,-2.28
2022-12-11T06:46:05.406Z,-2.29
2022-12-11T06:48:39.808Z,-2.33
2022-12-11T06:51:18.398Z,-2.34
2022-12-11T06:53:54.887Z,-2.36
2022-12-11T06:56:28.535Z,-2.37
2022-12-11T06:59:07.154Z,-2.40
2022-12-11T07:01:41.874Z,-2.40
2022-12-11T07:04:15.379Z,-2.46
2022-12-11T07:06:49.202Z,-2.49
2022-12-11T07:09:24.286Z,-2.52
2022-12-11T07:11:58.183Z,-2.53
2022-12-11T07:14:31.664Z,-2.56
2022-12-11T07:17:05.463Z,-2.58
2022-12-11T07:19:38.890Z,-2.59
2022-12-11T07:22:12.579Z,-2.60
2022-12-11T07:24:47.456Z,-2.61
2022-12-11T07:27:21.241Z,-2.63
2022-12-11T07:29:55.481Z,-2.65
2022-12-11T07:32:29.767Z,-2.65
2022-12-11T07:35:03.410Z,-2.65
2022-12-11T07:37:38.122Z,-2.67
2022-12-11T07:40:13.908Z,-2.65
2022-12-11T07:42:48.118Z,-2.62
2022-12-11T07:45:21.725Z,-2.64
2022-12-11T07:47:55.463Z,-2.64
2022-12-11T07:50:29.003Z,-2.54
2022-12-11T07:53:02.903Z,-2.45
2022-12-11T07:55:37.834Z,-2.47
2022-12-11T07:58:11.580Z,-2.52
2022-12-11T08:00:45.461Z,-2.54
2022-12-11T08:03:19.167Z,-2.61
2022-12-11T08:05:53.710Z,-2.66
2022-12-11T08:08:27.504Z,-2.66
2022-12-11T08:11:03.457Z,-2.65
2022-12-11T08:13:37.256Z,-2.70
2022-12-11T08:16:13.066Z,-2.79
2022-12-11T08:18:48.323Z,-2.75
2022-12-11T08:21:24.450Z,-2.75
2022-12-11T08:23:58.196Z,-2.72
2022-12-11T08:26:33.169Z,-2.70
2022-12-11T08:29:06.994Z,-2.69
2022-12-11T08:31:40.707Z,-2.67
2022-12-11T08:34:14.634Z,-2.66
2022-12-11T08:36:48.323Z,-2.66
2022-12-11T08:39:22.237Z,-2.69
2022-12-11T08:41:57.462Z,-2.61
2022-12-11T08:44:31.426Z,-2.66
2022-12-11T08:47:05.333Z,-2.61
2022-12-11T08:49:39.115Z,-2.66
2022-12-11T08:52:12.856Z,-2.62
2022-12-11T08:54:46.515Z,-2.59
2022-12-11T08:57:21.368Z,-2.62
2022-12-11T08:59:55.052Z,-2.64
2022-12-11T09:02:28.643Z,-2.62
2022-12-11T09:05:02.561Z,-2.55
2022-12-11T09:07:36.928Z,-2.55
2022-12-11T09:10:11.479Z,-2.49
2022-12-11T09:12:46.752Z,-2.50
2022-12-11T09:15:20.730Z,-2.43
2022-12-11T09:17:54.261Z,-2.40
2022-12-11T09:20:28.008Z,-2.32
2022-12-11T09:23:02.461Z,-2.31
2022-12-11T09:25:36.142Z,-2.31
2022-12-11T09:28:11.037Z,-2.23
2022-12-11T09:30:44.761Z,-2.15
2022-12-11T09:33:18.334Z,-2.01
2022-12-11T09:35:58.575Z,-1.82
2022-12-11T09:38:32.825Z,-1.67
2022-12-11T09:41:27.662Z,-1.48
2022-12-11T09:44:09.484Z,-1.41
2022-12-11T09:46:43.703Z,-1.35
2022-12-11T09:49:26.021Z,-1.42
2022-12-11T09:52:07.848Z,-1.16
2022-12-11T09:54:47.110Z,-0.68
2022-12-11T09:57:36.295Z,-0.50
2022-12-11T10:00:22.706Z,-0.25
2022-12-11T10:03:12.243Z,-0.44
2022-12-11T10:05:51.152Z,-0.41
2022-12-11T10:08:31.719Z,-0.40
2022-12-11T10:11:23.797Z,-0.39
2022-12-11T10:14:07.030Z,-0.59
2022-12-11T10:16:46.146Z,-0.65
2022-12-11T10:19:23.076Z,-0.97
2022-12-11T10:21:57.731Z,-1.00
2022-12-11T10:27:36.066Z,-1.11
2022-12-11T10:30:18.035Z,-1.04
2022-12-11T10:32:58.627Z,-1.00
2022-12-11T10:35:35.929Z,-1.03
2022-12-11T10:38:15.977Z,-1.05
2022-12-11T10:40:53.691Z,-1.06
2022-12-11T10:43:35.159Z,-1.12
2022-12-11T10:46:17.881Z,-1.01
2022-12-11T10:48:55.399Z,-0.95
2022-12-11T10:51:35.963Z,-1.07
2022-12-11T10:54:28.082Z,-0.98
2022-12-11T10:57:03.325Z,-0.78
2022-12-11T10:59:39.942Z,-0.82
2022-12-11T11:02:22.852Z,-0.92
2022-12-11T11:05:00.307Z,-0.90
2022-12-11T11:07:34.341Z,-0.86
2022-12-11T11:10:17.199Z,-0.88
2022-12-11T11:12:51.624Z,-0.83
2022-12-11T11:15:28.143Z,-0.88
2022-12-11T11:18:10.668Z,-0.89
2022-12-11T11:20:49.022Z,-0.87
2022-12-11T11:23:24.928Z,-0.78
2022-12-11T11:26:00.243Z,-0.78
2022-12-11T11:28:37.853Z,-0.71
2022-12-11T11:31:13.685Z,-0.70
2022-12-11T11:33:56.206Z,-0.72
2022-12-11T11:36:33.600Z,-0.69
2022-12-11T11:39:19.813Z,-0.56
2022-12-11T11:41:59.652Z,-0.60
2022-12-11T11:44:38.022Z,-0.70
2022-12-11T11:47:15.769Z,-0.68
2022-12-11T11:49:56.750Z,-0.73
2022-12-11T11:52:35.561Z,-0.65
2022-12-11T11:55:20.322Z,-0.72
2022-12-11T11:58:02.018Z,-0.69
2022-12-11T12:00:35.754Z,-0.59
2022-12-11T12:03:12.286Z,-0.56
2022-12-11T12:05:53.121Z,-0.48
2022-12-11T12:08:40.530Z,-0.53
2022-12-11T12:11:25.883Z,-0.47
2022-12-11T12:14:28.776Z,-0.44
2022-12-11T12:17:15.193Z,-0.40
2022-12-11T12:19:57.425Z,-0.40
2022-12-11T12:22:48.548Z,-0.41
2022-12-11T12:25:29.686Z,-0.39
2022-12-11T12:28:11.587Z,-0.38
2022-12-11T12:30:57.727Z,-0.36
2022-12-11T12:33:43.560Z,-0.34
2022-12-11T12:36:23.184Z,-0.32
2022-12-11T12:39:02.883Z,-0.28
2022-12-11T12:41:48.236Z,-0.24
2022-12-11T12:44:24.903Z,-0.06
2022-12-11T12:47:01.830Z,0.12
2022-12-11T12:49:41.140Z,0.30
2022-12-11T12:52:17.683Z,0.44
2022-12-11T12:55:16.128Z,0.42
2022-12-11T12:57:53.589Z,0.45
2022-12-11T13:00:30.836Z,0.38
2022-12-11T13:03:15.292Z,0.38
2022-12-11T13:05:58.833Z,0.47
2022-12-11T13:08:38.895Z,0.43
2022-12-11T13:11:14.837Z,0.19
2022-12-11T13:14:02.005Z,0.15
2022-12-11T13:16:38.200Z,0.14
2022-12-11T13:19:19.377Z,0.32
2022-12-11T13:21:57.758Z,0.19
2022-12-11T13:24:33.357Z,0.16
2022-12-11T13:27:11.339Z,0.23
2022-12-11T13:29:46.160Z,0.22
2022-12-11T13:32:25.678Z,0.23
2022-12-11T13:35:01.016Z,0.24
2022-12-11T13:37:37.870Z,0.24
2022-12-11T13:40:19.770Z,0.16
2022-12-11T13:42:56.735Z,0.15
2022-12-11T13:45:46.976Z,0.17
2022-12-11T13:48:25.607Z,0.14
2022-12-11T13:51:00.319Z,0.12
2022-12-11T13:53:34.431Z,0.11
2022-12-11T13:56:16.932Z,0.03
2022-12-11T13:58:50.570Z,-0.11
2022-12-11T14:01:28.601Z,-0.16
2022-12-11T14:04:05.500Z,-0.16
2022-12-11T14:06:40.667Z,-0.21
2022-12-11T14:09:19.846Z,-0.30
2022-12-11T14:11:57.260Z,-0.33
2022-12-11T14:14:41.312Z,-0.39
2022-12-11T14:17:24.965Z,-0.44
2022-12-11T14:20:01.821Z,-0.47
2022-12-11T14:22:35.716Z,-0.51
2022-12-11T14:25:21.706Z,-0.47
2022-12-11T14:27:57.365Z,-0.50
2022-12-11T14:30:34.117Z,-0.52
2022-12-11T14:33:11.743Z,-0.49
2022-12-11T14:35:47.727Z,-0.45
2022-12-11T14:38:27.953Z,-0.43
2022-12-11T14:41:05.534Z,-0.39
2022-12-11T14:43:46.434Z,-0.34
2022-12-11T14:46:37.654Z,-0.27
2022-12-11T14:49:22.754Z,-0.25
2022-12-11T14:51:58.602Z,-0.23
2022-12-11T14:54:36.841Z,-0.20
2022-12-11T14:57:19.214Z,-0.18
2022-12-11T14:59:55.133Z,-0.16
2022-12-11T15:02:32.150Z,-0.15
2022-12-11T15:05:25.170Z,-0.12
2022-12-11T15:08:01.507Z,-0.13
2022-12-11T15:10:38.685Z,-0.14
2022-12-11T15:13:16.601Z,-0.13
2022-12-11T15:15:51.155Z,-0.12
2022-12-11T15:18:26.463Z,-0.10
2022-12-11T15:21:03.941Z,-0.08
2022-12-11T15:23:50.388Z,-0.09
2022-12-11T15:26:35.385Z,-0.10
2022-12-11T15:29:34.022Z,-0.11
2022-12-11T15:32:19.705Z,-0.12
2022-12-11T15:34:55.011Z,-0.12
2022-12-11T15:37:31.842Z,-0.16
2022-12-11T15:40:07.872Z,-0.13
2022-12-11T15:42:43.366Z,-0.09
2022-12-11T15:45:19.080Z,-0.13
2022-12-11T15:47:53.726Z,-0.15
2022-12-11T15:50:29.153Z,-0.16
2022-12-11T15:53:04.442Z,-0.19
2022-12-11T15:55:40.109Z,-0.25
2022-12-11T15:58:16.819Z,-0.29
2022-12-11T16:00:51.393Z,-0.35
2022-12-11T16:03:25.858Z,-0.35
2022-12-11T16:05:59.585Z,-0.36
2022-12-11T16:08:34.436Z,-0.37
2022-12-11T16:11:08.095Z,-0.38
2022-12-11T16:13:41.572Z,-0.33
2022-12-11T16:16:15.272Z,-0.38
2022-12-11T16:18:48.816Z,-0.41
2022-12-11T16:21:22.519Z,-0.41
2022-12-11T16:23:57.453Z,-0.40
2022-12-11T16:26:31.197Z,-0.41
2022-12-11T16:29:04.617Z,-0.37
2022-12-11T16:31:38.340Z,-0.32
2022-12-11T16:34:11.976Z,-0.32
2022-12-11T16:36:45.670Z,-0.30
2022-12-11T16:39:20.672Z,-0.29
2022-12-11T16:41:54.602Z,-0.29
2022-12-11T16:44:28.499Z,-0.28
2022-12-11T16:47:02.121Z,-0.26
2022-12-11T16:49:35.700Z,-0.26
2022-12-11T16:52:09.537Z,-0.25
2022-12-11T16:54:44.445Z,-0.27
2022-12-11T16:57:18.203Z,-0.24
2022-12-11T16:59:51.788Z,-0.24
2022-12-11T17:02:25.571Z,-0.22
2022-12-11T17:04:59.208Z,-0.23
2022-12-11T17:07:33.389Z,-0.30
2022-12-11T17:10:09.607Z,-0.29
2022-12-11T17:12:43.441Z,-0.31
2022-12-11T17:15:17.087Z,-0.29
2022-12-11T17:17:51.053Z,-0.25
2022-12-11T17:20:24.901Z,-0.23
2022-12-11T17:22:58.724Z,-0.21
2022-12-11T17:25:33.665Z,-0.20
2022-12-11T17:28:07.299Z,-0.16
2022-12-11T17:30:41.908Z,-0.18
2022-12-11T17:33:15.758Z,-0.22
2022-12-11T17:35:49.739Z,-0.14
2022-12-11T17:38:23.542Z,-0.11
2022-12-11T17:40:58.399Z,-0.16
2022-12-11T17:43:32.097Z,-0.20
2022-12-11T17:46:06.615Z,-0.19
2022-12-11T17:48:41.017Z,-0.18
2022-12-11T17:51:20.955Z,-0.20
2022-12-11T17:53:56.339Z,-0.27
2022-12-11T17:56:33.868Z,-0.35
2022-12-11T17:59:07.954Z,-0.42
2022-12-11T18:01:41.547Z,-0.50
2022-12-11T18:04:15.384Z,-0.47
2022-12-11T18:06:48.926Z,-0.50
2022-12-11T18:09:22.711Z,-0.48
2022-12-11T18:11:57.733Z,-0.44
2022-12-11T18:14:31.467Z,-0.45
2022-12-11T18:17:05.064Z,-0.44
2022-12-11T18:19:44.389Z,-0.38
2022-12-11T18:22:19.506Z,-0.34
2022-12-11T18:24:54.638Z,-0.34
2022-12-11T18:27:29.625Z,-0.35
2022-12-11T18:30:03.795Z,-0.38
2022-12-11T18:32:37.326Z,-0.37
2022-12-11T18:35:12.628Z,-0.38
2022-12-11T18:37:46.465Z,-0.36
2022-12-11T18:40:20.380Z,-0.39
2022-12-11T18:42:55.208Z,-0.35
2022-12-11T18:45:29.010Z,-0.37
2022-12-11T18:48:02.671Z,-0.36
2022-12-11T18:50:36.921Z,-0.38
2022-12-11T18:53:10.526Z,-0.33
2022-12-11T18:55:44.960Z,-0.46
2022-12-11T18:58:20.497Z,-0.49
2022-12-11T19:00:54.200Z,-0.49
2022-12-11T19:03:29.452Z,-0.49
2022-12-11T19:06:13.912Z,-0.56
2022-12-11T19:08:48.068Z,-0.49
2022-12-11T19:11:24.540Z,-0.42
2022-12-11T19:13:59.750Z,-0.39
2022-12-11T19:16:35.533Z,-0.41
2022-12-11T19:19:12.161Z,-0.41
2022-12-11T19:21:46.313Z,-0.53
2022-12-11T19:24:23.154Z,-0.51
2022-12-11T19:26:56.923Z,-0.51
2022-12-11T19:29:33.344Z,-0.45
2022-12-11T19:32:07.094Z,-0.41
2022-12-11T19:34:41.251Z,-0.37
2022-12-11T19:37:14.972Z,-0.34
2022-12-11T19:39:48.534Z,-0.31
2022-12-11T19:42:22.312Z,-0.31
2022-12-11T19:44:57.133Z,-0.31
2022-12-11T19:47:30.782Z,-0.26
2022-12-11T19:50:04.493Z,-0.32
2022-12-11T19:52:42.878Z,-0.33
2022-12-11T19:55:21.487Z,-0.38
2022-12-11T19:57:55.150Z,-0.42
2022-12-11T20:00:30.052Z,-0.39
2022-12-11T20:03:03.747Z,-0.43
2022-12-11T20:05:37.387Z,-0.43
2022-12-11T20:11:05.826Z,-0.38
2022-12-11T20:13:40.522Z,-0.32
2022-12-11T20:16:16.567Z,-0.35
2022-12-11T20:18:50.515Z,-0.33
2022-12-11T20:21:24.623Z,-0.39
2022-12-11T20:23:58.456Z,-0.42
2022-12-11T20:26:32.620Z,-0.43
2022-12-11T20:29:08.176Z,-0.47
2022-12-11T20:31:44.149Z,-0.48
2022-12-11T20:34:18.140Z,-0.49
2022-12-11T20:36:53.189Z,-0.48
2022-12-11T20:39:27.007Z,-0.51
2022-12-11T20:42:04.631Z,-0.50
2022-12-11T20:44:40.730Z,-0.46
2022-12-11T20:47:20.586Z,-0.47
2022-12-11T20:49:55.043Z,-0.52
2022-12-11T20:52:29.107Z,-0.50
2022-12-11T20:55:02.877Z,-0.51
2022-12-11T20:57:40.563Z,-0.50
2022-12-11T21:00:18.251Z,-0.45
2022-12-11T21:02:53.193Z,-0.48
2022-12-11T21:05:26.873Z,-0.56
2022-12-11T21:08:00.514Z,-0.53
2022-12-11T21:10:34.745Z,-0.47
2022-12-11T21:13:08.538Z,-0.44
2022-12-11T21:15:42.314Z,-0.45
2022-12-11T21:18:17.167Z,-0.47
2022-12-11T21:20:51.085Z,-0.49
2022-12-11T21:23:24.606Z,-0.46
2022-12-11T21:25:58.328Z,-0.50
2022-12-11T21:28:35.431Z,-0.45
2022-12-11T21:31:12.793Z,-0.46
2022-12-11T21:33:48.266Z,-0.47
2022-12-11T21:36:22.099Z,-0.46
2022-12-11T21:38:55.596Z,-0.42
2022-12-11T21:41:29.745Z,-0.45
2022-12-11T21:46:57.254Z,-0.45
2022-12-11T21:49:32.174Z,-0.46
2022-12-11T21:52:06.927Z,-0.45
2022-12-11T21:54:41.342Z,-0.41
2022-12-11T21:57:15.115Z,-0.45
2022-12-11T21:59:48.651Z,-0.40
2022-12-11T22:02:22.641Z,-0.36
2022-12-11T22:05:00.764Z,-0.33
2022-12-11T22:07:34.482Z,-0.33
2022-12-11T22:10:09.074Z,-0.35
2022-12-11T22:12:42.788Z,-0.32
2022-12-11T22:15:16.337Z,-0.23
2022-12-11T22:17:50.219Z,-0.26
2022-12-11T22:20:25.093Z,-0.26
2022-12-11T22:22:58.873Z,-0.24
2022-12-11T22:25:32.422Z,-0.26
2022-12-11T22:28:06.189Z,-0.29
2022-12-11T22:30:40.018Z,-0.40
2022-12-11T22:33:14.204Z,-0.45
2022-12-11T22:35:56.466Z,-0.42
2022-12-11T22:38:30.115Z,-0.37
2022-12-11T22:41:09.790Z,-0.39
2022-12-11T22:43:43.679Z,-0.41
2022-12-11T22:46:17.664Z,-0.40
2022-12-11T22:48:51.700Z,-0.38
2022-12-11T22:51:26.756Z,-0.30
2022-12-11T22:54:00.531Z,-0.35
2022-12-11T22:56:34.114Z,-0.32
2022-12-11T22:59:07.909Z,-0.28
2022-12-11T23:01:41.624Z,-0.26
2022-12-11T23:04:15.380Z,-0.26
2022-12-11T23:06:50.283Z,-0.34
2022-12-11T23:09:24.337Z,-0.33
2022-12-11T23:11:58.847Z,-0.32
2022-12-11T23:14:32.729Z,-0.33
2022-12-11T23:17:06.348Z,-0.33
2022-12-11T23:19:40.126Z,-0.35
2022-12-11T23:22:15.297Z,-0.33
2022-12-11T23:24:48.961Z,-0.35
2022-12-11T23:27:22.464Z,-0.35
2022-12-11T23:29:56.150Z,-0.37
2022-12-11T23:32:29.731Z,-0.36
2022-12-11T23:35:03.416Z,-0.44
2022-12-11T23:37:38.329Z,-0.40
2022-12-11T23:40:14.108Z,-0.43
2022-12-11T23:42:47.531Z,-0.45
2022-12-11T23:45:21.687Z,-0.42
2022-12-11T23:47:55.383Z,-0.47
2022-12-11T23:50:31.130Z,-0.49
2022-12-11T23:53:06.171Z,-0.48
2022-12-11T23:55:41.191Z,-0.49
2022-12-11T23:58:15.215Z,-0.54
